METAR AND TAF INFORMATION

METAR FOR LXGB
ADDS - METARS form results

(0237 UTC 05 December 2022)
Data provider http://aviationweather.gov/metar/data/
 
METAR text: LXGB 050220Z AUTO 07013KT 5000 -RA FEW008/// BKN085/// 15/14 Q1010
Conditions at: LXGB (GIBRALTAR (CIV/M, GI) observed 0220 UTC 05 December 2022
Temperature: 15.0°C (59°F)
Dewpoint: 14.0°C (57°F) [RH = 94%]
Pressure (altimeter): 29.82 inches Hg (1010.0 mb)
Winds: from the ENE (70 degrees) at 15 MPH (13 knots; 6.7 m/s)
Visibility: 3 miles ( 5 km)
Ceiling: 8500 feet AGL
Clouds: few clouds at 800 feet AGL
broken clouds at 8500 feet AGL
Weather: -RA  (light rain)

METAR text: LXGB 050150Z AUTO 24003KT 1500 +RA OVC004/// 15/14 Q1012
Conditions at: LXGB (GIBRALTAR (CIV/M, GI) observed 0150 UTC 05 December 2022
Temperature: 15.0°C (59°F)
Dewpoint: 14.0°C (57°F) [RH = 94%]
Pressure (altimeter): 29.88 inches Hg (1012.0 mb)
Winds: from the WSW (240 degrees) at 3 MPH (3 knots; 1.5 m/s)
Visibility: 0.93 miles (1.50 km)
Ceiling: 400 feet AGL
Clouds: overcast cloud deck at 400 feet AGL
Weather: +RA  (heavy rain)

Forecast for: LXGB (GIBRALTAR (CIV/M, GI)
Text: TAF LXGB 041645Z 0418/0423 07008KT 9999 BKN025
Forecast period: 1800 to 2300 UTC 04 December 2022
Forecast type: FROM: standard forecast or significant change
Winds: from the ENE (70 degrees) at 9 MPH (8 knots; 4.1 m/s)
Visibility: 6 or more miles (10+ km)
Ceiling: 2500 feet AGL
Clouds: broken clouds at 2500 feet AGL
Weather: no significant weather forecast for this period
Text: TEMPO 0418/0423 SCT018
Forecast period: 1800 to 2300 UTC 04 December 2022
Forecast type: TEMPORARY: The following changes expected for less than half the time period
Visibility: missing
Ceiling: at least 12,000 feet AGL
Clouds: scattered clouds at 1800 feet AGL
Weather: no significant weather forecast for this period
Text: PROB40
Forecast period: 1800 to 2300 UTC 04 December 2022
Forecast type: TEMPORARY: The following changes expected for less than half the time period
Visibility: missing
Ceiling: at least 12,000 feet AGL
Clouds: scattered clouds at 1000 feet AGL
Weather: no significant weather forecast for this period
Text: TEMPO 0418/0423 SCT010
Forecast period: 1800 to 2100 UTC 04 December 2022
Forecast type: TEMPORARY: The following changes expected for less than half the time period
Visibility: 4 miles (7 km)
Ceiling: unknown
Clouds: missing
Weather: SHRA  (rain showers)

 

AIRPORT MAP

 

RUNWAY INFORMATION

Runway 09 Runway length 6000 ft Runway width 150 ft
Runway elevation 10 ft Runway displaced threshold 302 ft Runway heading 88
Runway 27 Runway length 6000 ft Runway width 150 ft
Runway elevation 11 ft Runway displaced threshold 368 ft Runway heading 268

 

AIRPORT FREQUENCIES

Type A/D Name APP Frequency 122.8 MHZ
Type OPS Name GIB TALKDO Frequency 130.4 MHZ
Type TWR Name TWR Frequency 131.2 MHZ

 

AIRPORT NEAR NAVIGATION AIDS

Type TACAN Name Gibraltar Frequency 113600 KHZ